createdAt,value
2023-03-25T00:00:19.360Z,3.63
2023-03-25T00:02:51.210Z,3.17
2023-03-25T00:05:20.411Z,3.20
2023-03-25T00:07:51.186Z,3.30
2023-03-25T00:10:18.621Z,2.45
2023-03-25T00:12:45.476Z,2.60
2023-03-25T00:15:13.696Z,2.38
2023-03-25T00:17:40.861Z,2.70
2023-03-25T00:20:10.195Z,2.92
2023-03-25T00:22:44.795Z,3.35
2023-03-25T00:25:17.834Z,3.38
2023-03-25T00:27:47.029Z,3.67
2023-03-25T00:30:15.859Z,2.85
2023-03-25T00:32:46.462Z,2.63
2023-03-25T00:35:14.125Z,2.55
2023-03-25T00:37:41.372Z,2.65
2023-03-25T00:40:09.065Z,2.50
2023-03-25T00:42:35.911Z,2.85
2023-03-25T00:45:02.895Z,2.17
2023-03-25T00:47:29.791Z,2.17
2023-03-25T00:49:56.501Z,2.28
2023-03-25T00:52:23.286Z,2.67
2023-03-25T00:54:50.135Z,1.83
2023-03-25T00:57:17.699Z,2.45
2023-03-25T00:59:44.482Z,2.20
2023-03-25T01:02:11.697Z,1.60
2023-03-25T01:04:41.584Z,2.22
2023-03-25T01:07:09.782Z,2.20
2023-03-25T01:09:36.896Z,2.78
2023-03-25T01:12:03.721Z,1.95
2023-03-25T01:14:30.513Z,2.20
2023-03-25T01:16:59.196Z,2.17
2023-03-25T01:19:26.560Z,3.42
2023-03-25T01:21:53.275Z,2.78
2023-03-25T01:24:20.090Z,2.50
2023-03-25T01:26:49.788Z,3.13
2023-03-25T01:29:19.002Z,3.75
2023-03-25T01:31:45.956Z,3.88
2023-03-25T01:34:13.546Z,3.97
2023-03-25T01:36:40.718Z,3.90
2023-03-25T01:39:08.981Z,4.13
2023-03-25T01:41:49.017Z,3.13
2023-03-25T01:44:19.780Z,3.92
2023-03-25T01:46:54.000Z,4.07
2023-03-25T01:49:25.243Z,3.00
2023-03-25T01:51:56.950Z,3.10
2023-03-25T01:54:24.903Z,4.35
2023-03-25T01:56:56.200Z,4.13
2023-03-25T01:59:30.056Z,3.10
2023-03-25T02:02:02.444Z,3.60
2023-03-25T02:04:40.592Z,3.03
2023-03-25T02:07:09.202Z,2.78
2023-03-25T02:09:37.344Z,3.75
2023-03-25T02:12:04.220Z,3.40
2023-03-25T02:14:34.604Z,3.20
2023-03-25T02:17:32.314Z,2.58
2023-03-25T02:20:24.398Z,3.13
2023-03-25T02:23:05.388Z,2.50
2023-03-25T02:25:39.828Z,2.45
2023-03-25T02:28:18.115Z,2.72
2023-03-25T02:31:06.750Z,2.05
2023-03-25T02:34:11.263Z,2.08
2023-03-25T02:36:57.294Z,2.10
2023-03-25T02:39:53.586Z,2.30
2023-03-25T02:42:34.596Z,1.83
2023-03-25T02:45:14.557Z,1.95
2023-03-25T02:47:47.663Z,1.90
2023-03-25T02:50:21.355Z,2.15
2023-03-25T02:52:53.014Z,1.92
2023-03-25T02:55:23.174Z,1.77
2023-03-25T02:57:53.314Z,2.35
2023-03-25T03:00:24.551Z,2.42
2023-03-25T03:02:59.673Z,2.00
2023-03-25T03:05:28.675Z,2.17
2023-03-25T03:08:04.493Z,3.25
2023-03-25T03:10:49.131Z,2.15
2023-03-25T03:13:24.855Z,2.40
2023-03-25T03:16:00.855Z,2.47
2023-03-25T03:18:44.903Z,1.70
2023-03-25T03:21:44.642Z,2.10
2023-03-25T03:24:23.593Z,2.97
2023-03-25T03:26:58.184Z,2.67
2023-03-25T03:29:36.858Z,2.42
2023-03-25T03:32:13.751Z,1.98
2023-03-25T03:34:47.230Z,2.25
2023-03-25T03:37:18.715Z,2.58
2023-03-25T03:39:47.672Z,2.47
2023-03-25T03:42:46.593Z,2.80
2023-03-25T03:45:22.841Z,1.92
2023-03-25T03:47:54.524Z,2.08
2023-03-25T03:50:31.650Z,2.60
2023-03-25T03:53:12.818Z,2.67
2023-03-25T03:55:43.752Z,2.47
2023-03-25T03:58:22.387Z,2.45
2023-03-25T04:00:57.713Z,3.70
2023-03-25T04:03:35.150Z,2.65
2023-03-25T04:06:13.350Z,2.53
2023-03-25T04:09:05.689Z,2.42
2023-03-25T04:11:47.238Z,1.95
2023-03-25T04:14:14.562Z,3.08
2023-03-25T04:16:45.731Z,2.75
2023-03-25T04:19:18.720Z,2.47
2023-03-25T04:21:48.050Z,2.67
2023-03-25T04:24:17.049Z,2.55
2023-03-25T04:26:44.123Z,2.97
2023-03-25T04:29:10.862Z,3.25
2023-03-25T04:31:37.874Z,2.60
2023-03-25T04:34:04.760Z,2.17
2023-03-25T04:36:38.072Z,3.08
2023-03-25T04:39:05.205Z,2.65
2023-03-25T04:41:33.773Z,1.90
2023-03-25T04:44:00.584Z,2.47
2023-03-25T04:46:27.430Z,2.72
2023-03-25T04:48:57.217Z,2.35
2023-03-25T04:51:23.946Z,3.17
2023-03-25T04:53:50.741Z,3.10
2023-03-25T04:56:18.749Z,2.40
2023-03-25T04:58:46.087Z,2.85
2023-03-25T05:01:33.078Z,2.45
2023-03-25T05:04:07.769Z,2.55
2023-03-25T05:06:38.444Z,2.25
2023-03-25T05:09:06.683Z,2.53
2023-03-25T05:11:37.020Z,2.53
2023-03-25T05:14:04.027Z,2.47
2023-03-25T05:16:30.774Z,2.90
2023-03-25T05:18:57.531Z,3.08
2023-03-25T05:21:24.277Z,2.90
2023-03-25T05:23:52.764Z,2.90
2023-03-25T05:26:20.858Z,2.72
2023-03-25T05:28:51.603Z,2.20
2023-03-25T05:31:18.767Z,2.83
2023-03-25T05:33:45.539Z,2.92
2023-03-25T05:36:18.716Z,3.80
2023-03-25T05:41:16.713Z,3.38
2023-03-25T05:43:48.299Z,4.85
2023-03-25T05:46:15.516Z,3.60
2023-03-25T05:48:43.010Z,3.67
2023-03-25T05:51:16.608Z,3.83
2023-03-25T05:53:45.153Z,3.35
2023-03-25T05:56:12.188Z,4.05
2023-03-25T05:58:39.452Z,3.15
2023-03-25T06:01:09.234Z,4.07
2023-03-25T06:03:39.172Z,3.33
2023-03-25T06:06:13.955Z,2.78
2023-03-25T06:08:47.546Z,3.28
2023-03-25T06:11:16.967Z,3.50
2023-03-25T06:13:49.959Z,3.25
2023-03-25T06:16:19.403Z,3.20
2023-03-25T06:18:50.740Z,3.15
2023-03-25T06:21:19.889Z,3.38
2023-03-25T06:23:50.325Z,3.83
2023-03-25T06:26:18.437Z,3.97
2023-03-25T06:28:46.202Z,3.70
2023-03-25T06:31:17.956Z,3.45
2023-03-25T06:33:45.832Z,4.00
2023-03-25T06:36:15.649Z,4.53
2023-03-25T06:38:42.413Z,4.97
2023-03-25T06:41:09.106Z,3.65
2023-03-25T06:43:35.820Z,3.45
2023-03-25T06:46:02.613Z,4.55
2023-03-25T06:48:29.791Z,3.70
2023-03-25T06:50:57.381Z,3.45
2023-03-25T06:53:24.207Z,5.13
2023-03-25T06:55:51.089Z,4.15
2023-03-25T06:58:18.016Z,3.58
2023-03-25T07:00:46.019Z,3.70
2023-03-25T07:03:12.723Z,4.18
2023-03-25T07:05:41.872Z,4.05
2023-03-25T07:08:08.885Z,3.78
2023-03-25T07:10:35.563Z,4.00
2023-03-25T07:13:03.312Z,3.95
2023-03-25T07:15:30.081Z,4.13
2023-03-25T07:17:56.789Z,3.95
2023-03-25T07:20:23.811Z,5.22
2023-03-25T07:22:50.632Z,3.67
2023-03-25T07:25:17.467Z,3.38
2023-03-25T07:27:44.183Z,4.18
2023-03-25T07:30:11.178Z,4.82
2023-03-25T07:32:37.977Z,3.55
2023-03-25T07:35:05.901Z,3.50
2023-03-25T07:37:32.656Z,3.50
2023-03-25T07:39:59.378Z,4.30
2023-03-25T07:42:26.184Z,4.03
2023-03-25T07:44:52.925Z,3.60
2023-03-25T07:47:19.672Z,3.90
2023-03-25T07:49:47.874Z,4.45
2023-03-25T07:52:14.624Z,4.03
2023-03-25T07:54:41.354Z,4.25
2023-03-25T07:57:08.161Z,3.85
2023-03-25T07:59:35.108Z,3.58
2023-03-25T08:02:01.950Z,4.60
2023-03-25T08:04:28.988Z,3.08
2023-03-25T08:06:55.692Z,4.15
2023-03-25T08:09:23.134Z,4.43
2023-03-25T08:11:51.522Z,4.35
2023-03-25T08:14:18.576Z,4.18
2023-03-25T08:16:45.435Z,3.53
2023-03-25T08:19:12.252Z,4.70
2023-03-25T08:21:38.975Z,2.92
2023-03-25T08:24:05.874Z,4.00
2023-03-25T08:26:34.383Z,4.00
2023-03-25T08:29:02.924Z,3.45
2023-03-25T08:31:32.429Z,3.28
2023-03-25T08:34:00.697Z,3.70
2023-03-25T08:36:27.940Z,3.55
2023-03-25T08:38:55.391Z,3.33
2023-03-25T08:41:22.131Z,3.05
2023-03-25T08:43:49.370Z,3.75
2023-03-25T08:46:16.700Z,3.47
2023-03-25T08:48:44.320Z,3.28
2023-03-25T08:51:11.028Z,3.13
2023-03-25T08:53:37.756Z,2.90
2023-03-25T08:56:04.854Z,3.72
2023-03-25T08:58:31.572Z,2.78
2023-03-25T09:00:58.606Z,3.65
2023-03-25T09:03:27.217Z,3.38
2023-03-25T09:05:54.843Z,4.30
2023-03-25T09:08:22.424Z,3.17
2023-03-25T09:10:49.306Z,3.20
2023-03-25T09:13:16.226Z,4.75
2023-03-25T09:15:43.025Z,3.58
2023-03-25T09:18:10.416Z,3.55
2023-03-25T09:20:37.125Z,5.50
2023-03-25T09:23:04.298Z,3.50
2023-03-25T09:25:31.140Z,4.47
2023-03-25T09:27:57.834Z,4.72
2023-03-25T09:30:24.704Z,3.75
2023-03-25T09:32:51.534Z,3.63
2023-03-25T09:35:18.451Z,4.15
2023-03-25T09:37:45.867Z,5.28
2023-03-25T09:40:21.140Z,3.42
2023-03-25T09:43:01.899Z,5.53
2023-03-25T09:45:36.372Z,3.63
2023-03-25T09:48:06.230Z,3.92
2023-03-25T09:50:35.632Z,3.70
2023-03-25T09:53:23.571Z,3.05
2023-03-25T09:55:52.151Z,3.03
2023-03-25T09:58:22.170Z,3.50
2023-03-25T10:01:00.487Z,3.10
2023-03-25T10:03:38.452Z,2.90
2023-03-25T10:06:20.441Z,2.85
2023-03-25T10:08:57.061Z,3.58
2023-03-25T10:11:37.004Z,3.45
2023-03-25T10:14:27.302Z,3.67
2023-03-25T10:17:18.954Z,2.97
2023-03-25T10:19:59.541Z,2.78
2023-03-25T10:22:41.861Z,3.13
2023-03-25T10:25:22.819Z,3.10
2023-03-25T10:27:53.159Z,3.35
2023-03-25T10:30:27.750Z,2.60
2023-03-25T10:33:00.723Z,3.47
2023-03-25T10:35:36.064Z,2.88
2023-03-25T10:38:21.002Z,2.70
2023-03-25T10:40:53.505Z,3.67
2023-03-25T10:43:28.513Z,3.22
2023-03-25T10:46:01.660Z,3.10
2023-03-25T10:51:07.145Z,2.88
2023-03-25T10:53:34.503Z,2.72
2023-03-25T10:56:16.121Z,2.83
2023-03-25T10:58:45.909Z,2.35
2023-03-25T11:01:19.375Z,1.90
2023-03-25T11:03:51.742Z,2.75
2023-03-25T11:06:29.731Z,2.60
2023-03-25T11:09:17.159Z,2.78
2023-03-25T11:11:44.668Z,3.28
2023-03-25T11:14:12.167Z,2.47
2023-03-25T11:16:52.660Z,2.53
2023-03-25T11:19:25.710Z,2.63
2023-03-25T11:22:00.987Z,3.13
2023-03-25T11:24:32.837Z,2.30
2023-03-25T11:27:01.012Z,3.67
2023-03-25T11:29:29.069Z,2.85
2023-03-25T11:32:16.056Z,2.88
2023-03-25T11:34:47.868Z,2.92
2023-03-25T11:37:20.476Z,3.50
2023-03-25T11:39:55.499Z,2.70
2023-03-25T11:42:38.332Z,2.17
2023-03-25T11:45:05.982Z,2.60
2023-03-25T11:47:36.744Z,2.60
2023-03-25T11:50:04.771Z,3.22
2023-03-25T11:52:47.001Z,2.53
2023-03-25T11:55:29.321Z,2.70
2023-03-25T11:57:58.939Z,3.08
2023-03-25T12:00:26.297Z,2.40
2023-03-25T12:03:11.922Z,2.22
2023-03-25T12:05:39.507Z,2.72
2023-03-25T12:08:18.918Z,2.53
2023-03-25T12:10:46.833Z,3.08
2023-03-25T12:13:32.262Z,3.53
2023-03-25T12:16:18.502Z,2.35
2023-03-25T12:19:13.041Z,2.60
2023-03-25T12:22:04.777Z,2.88
2023-03-25T12:24:40.879Z,2.17
2023-03-25T12:27:16.754Z,3.38
2023-03-25T12:30:02.902Z,3.40
2023-03-25T12:32:42.554Z,2.78
2023-03-25T12:35:38.759Z,2.22
2023-03-25T12:38:15.037Z,3.28
2023-03-25T12:41:12.642Z,2.30
2023-03-25T12:43:57.542Z,2.40
2023-03-25T12:46:53.793Z,2.78
2023-03-25T12:49:45.244Z,2.90
2023-03-25T12:52:20.884Z,2.30
2023-03-25T12:55:23.188Z,2.20
2023-03-25T12:58:13.109Z,2.42
2023-03-25T13:01:01.085Z,2.60
2023-03-25T13:03:36.844Z,2.55
2023-03-25T13:06:23.205Z,2.53
2023-03-25T13:08:58.885Z,3.42
2023-03-25T13:11:51.848Z,3.00
2023-03-25T13:14:27.952Z,3.00
2023-03-25T13:17:00.188Z,2.65
2023-03-25T13:19:29.448Z,2.65
2023-03-25T13:22:01.336Z,3.05
2023-03-25T13:24:27.968Z,3.03
2023-03-25T13:26:56.865Z,2.72
2023-03-25T13:29:48.469Z,2.53
2023-03-25T13:32:27.657Z,2.88
2023-03-25T13:35:19.382Z,3.08
2023-03-25T13:37:53.998Z,2.45
2023-03-25T13:40:50.572Z,2.40
2023-03-25T13:43:20.487Z,2.33
2023-03-25T13:46:06.058Z,2.42
2023-03-25T13:49:25.420Z,2.72
2023-03-25T13:51:52.172Z,3.00
2023-03-25T13:54:23.191Z,2.25
2023-03-25T13:57:10.197Z,3.13
2023-03-25T13:59:56.115Z,2.20
2023-03-25T14:02:42.087Z,3.00
2023-03-25T14:05:27.345Z,2.80
2023-03-25T14:08:25.996Z,3.10
2023-03-25T14:11:13.222Z,1.67
2023-03-25T14:13:45.211Z,2.15
2023-03-25T14:16:18.188Z,3.67
2023-03-25T14:18:59.708Z,2.72
2023-03-25T14:21:38.553Z,2.80
2023-03-25T14:24:18.971Z,2.53
2023-03-25T14:27:01.938Z,2.70
2023-03-25T14:29:55.872Z,3.10
2023-03-25T14:32:22.452Z,2.35
2023-03-25T14:34:50.074Z,2.95
2023-03-25T14:37:26.231Z,3.30
2023-03-25T14:39:56.661Z,2.45
2023-03-25T14:42:29.089Z,3.95
2023-03-25T14:45:32.283Z,3.05
2023-03-25T14:47:59.975Z,2.55
2023-03-25T14:50:27.859Z,2.78
2023-03-25T14:53:02.608Z,2.80
2023-03-25T14:55:33.126Z,2.55
2023-03-25T14:58:03.367Z,2.30
2023-03-25T15:00:34.590Z,2.20
2023-03-25T15:03:14.381Z,2.28
2023-03-25T15:05:42.650Z,2.85
2023-03-25T15:08:09.799Z,3.17
2023-03-25T15:10:40.902Z,6.18
2023-03-25T15:13:13.462Z,4.97
2023-03-25T15:15:46.326Z,3.33
2023-03-25T15:18:31.842Z,3.60
2023-03-25T15:21:10.932Z,3.08
2023-03-25T15:23:51.300Z,2.67
2023-03-25T15:26:40.392Z,2.85
2023-03-25T15:29:19.275Z,2.83
2023-03-25T15:32:02.877Z,2.78
2023-03-25T15:34:44.972Z,2.35
2023-03-25T15:37:45.173Z,2.40
2023-03-25T15:40:21.147Z,2.33
2023-03-25T15:42:57.157Z,1.90
2023-03-25T15:45:36.149Z,2.05
2023-03-25T15:48:18.117Z,2.97
2023-03-25T15:50:53.020Z,2.85
2023-03-25T15:53:58.728Z,2.30
2023-03-25T15:56:37.218Z,2.22
2023-03-25T15:59:18.710Z,3.92
2023-03-25T16:01:49.507Z,3.70
2023-03-25T16:04:21.613Z,3.63
2023-03-25T16:06:53.186Z,2.75
2023-03-25T16:09:29.273Z,3.13
2023-03-25T16:12:03.211Z,2.80
2023-03-25T16:14:32.686Z,2.72
2023-03-25T16:17:02.153Z,2.78
2023-03-25T16:19:48.232Z,3.50
2023-03-25T16:22:16.092Z,2.85
2023-03-25T16:24:43.726Z,3.78
2023-03-25T16:27:13.277Z,2.60
2023-03-25T16:29:40.153Z,2.63
2023-03-25T16:32:07.080Z,4.05
2023-03-25T16:34:41.008Z,2.38
2023-03-25T16:37:10.279Z,3.03
2023-03-25T16:39:38.078Z,3.17
2023-03-25T16:42:21.214Z,4.50
2023-03-25T16:44:48.224Z,3.38
2023-03-25T16:47:16.060Z,3.55
2023-03-25T16:49:47.922Z,3.20
2023-03-25T16:52:22.752Z,2.85
2023-03-25T16:54:52.552Z,3.85
2023-03-25T16:57:24.475Z,3.53
2023-03-25T16:59:53.199Z,5.13
2023-03-25T17:02:24.943Z,2.67
2023-03-25T17:04:55.908Z,3.58
2023-03-25T17:07:27.653Z,3.97
2023-03-25T17:10:00.843Z,3.28
2023-03-25T17:15:04.527Z,3.83
2023-03-25T17:17:42.300Z,3.53
2023-03-25T17:20:19.973Z,2.90
2023-03-25T17:23:00.701Z,4.47
2023-03-25T17:25:53.978Z,3.10
2023-03-25T17:28:32.790Z,4.75
2023-03-25T17:31:00.240Z,4.65
2023-03-25T17:33:30.096Z,4.18
2023-03-25T17:35:57.585Z,3.72
2023-03-25T17:38:29.052Z,3.45
2023-03-25T17:41:01.406Z,2.92
2023-03-25T17:43:30.701Z,3.67
2023-03-25T17:45:58.198Z,3.83
2023-03-25T17:48:24.996Z,4.43
2023-03-25T17:50:53.760Z,4.13
2023-03-25T17:53:20.840Z,4.55
2023-03-25T17:55:48.469Z,4.28
2023-03-25T17:58:16.436Z,3.35
2023-03-25T18:00:44.093Z,2.97
2023-03-25T18:03:16.542Z,3.50
2023-03-25T18:05:43.677Z,3.65
2023-03-25T18:08:14.400Z,4.72
2023-03-25T18:10:42.155Z,3.45
2023-03-25T18:13:09.913Z,3.05
2023-03-25T18:15:39.450Z,4.10
2023-03-25T18:18:08.243Z,4.60
2023-03-25T18:20:37.653Z,4.05
2023-03-25T18:23:04.462Z,3.70
2023-03-25T18:25:34.189Z,4.03
2023-03-25T18:28:01.430Z,4.90
2023-03-25T18:30:31.936Z,3.85
2023-03-25T18:32:58.837Z,2.80
2023-03-25T18:35:25.780Z,4.78
2023-03-25T18:37:52.547Z,2.90
2023-03-25T18:40:24.229Z,3.40
2023-03-25T18:42:52.349Z,4.65
2023-03-25T18:45:21.224Z,4.65
2023-03-25T18:47:48.812Z,3.42
2023-03-25T18:50:32.781Z,3.88
2023-03-25T18:52:59.960Z,6.53
2023-03-25T18:55:29.015Z,4.32
2023-03-25T18:57:56.475Z,3.72
2023-03-25T19:00:35.002Z,3.80
2023-03-25T19:03:02.293Z,3.92
2023-03-25T19:05:29.188Z,3.38
2023-03-25T19:07:56.295Z,4.43
2023-03-25T19:10:29.528Z,3.85
2023-03-25T19:15:27.837Z,3.03
2023-03-25T19:17:58.813Z,3.50
2023-03-25T19:20:29.700Z,4.65
2023-03-25T19:22:56.743Z,4.90
2023-03-25T19:25:23.899Z,7.53
2023-03-25T19:27:50.986Z,4.13
2023-03-25T19:30:20.431Z,3.78
2023-03-25T19:32:49.444Z,3.30
2023-03-25T19:35:18.300Z,3.10
2023-03-25T19:37:51.158Z,3.83
2023-03-25T19:40:24.212Z,3.80
2023-03-25T19:42:54.785Z,4.65
2023-03-25T19:45:22.344Z,4.07
2023-03-25T19:47:49.265Z,3.20
2023-03-25T19:50:22.577Z,3.15
2023-03-25T19:52:51.372Z,3.15
2023-03-25T19:55:19.197Z,2.95
2023-03-25T19:57:46.374Z,3.55
2023-03-25T20:00:16.714Z,2.88
2023-03-25T20:02:46.425Z,3.10
2023-03-25T20:05:14.761Z,3.03
2023-03-25T20:07:43.976Z,3.60
2023-03-25T20:10:19.558Z,3.97
2023-03-25T20:12:48.203Z,3.28
2023-03-25T20:15:16.417Z,3.35
2023-03-25T20:17:43.478Z,3.95
2023-03-25T20:20:12.614Z,3.28
2023-03-25T20:22:40.859Z,3.72
2023-03-25T20:25:09.147Z,5.10
2023-03-25T20:27:36.352Z,3.72
2023-03-25T20:30:07.678Z,4.65
2023-03-25T20:32:41.447Z,4.22
2023-03-25T20:35:12.725Z,5.20
2023-03-25T20:37:40.770Z,4.35
2023-03-25T20:40:12.061Z,5.38
2023-03-25T20:42:41.496Z,4.18
2023-03-25T20:45:11.150Z,4.07
2023-03-25T20:47:38.579Z,3.55
2023-03-25T20:50:07.319Z,3.92
2023-03-25T20:52:36.096Z,2.90
2023-03-25T20:55:03.291Z,3.03
2023-03-25T20:57:30.040Z,3.47
2023-03-25T20:59:58.133Z,3.83
2023-03-25T21:02:25.234Z,5.05
2023-03-25T21:04:55.402Z,3.33
2023-03-25T21:07:22.598Z,2.97
2023-03-25T21:09:50.028Z,12.35
2023-03-25T21:12:16.856Z,5.03
2023-03-25T21:14:43.950Z,6.28
2023-03-25T21:17:11.511Z,5.75
2023-03-25T21:19:38.308Z,7.22
2023-03-25T21:22:05.069Z,10.80
2023-03-25T21:24:34.457Z,7.03
2023-03-25T21:27:01.995Z,5.85
2023-03-25T21:29:29.136Z,6.00
2023-03-25T21:31:59.321Z,8.48
2023-03-25T21:34:26.367Z,7.70
2023-03-25T21:36:55.825Z,5.47
2023-03-25T21:39:22.670Z,4.18
2023-03-25T21:41:49.448Z,5.05
2023-03-25T21:44:16.674Z,5.28
2023-03-25T21:46:43.599Z,3.95
2023-03-25T21:49:11.843Z,3.33
2023-03-25T21:51:42.698Z,2.92
2023-03-25T21:54:10.104Z,3.13
2023-03-25T21:56:40.153Z,3.63
2023-03-25T21:59:07.021Z,3.50
2023-03-25T22:01:34.032Z,2.95
2023-03-25T22:04:03.157Z,3.17
2023-03-25T22:06:33.478Z,4.75
2023-03-25T22:09:05.235Z,3.47
2023-03-25T22:11:34.302Z,7.75
2023-03-25T22:14:01.679Z,5.93
2023-03-25T22:16:28.659Z,6.10
2023-03-25T22:18:55.496Z,4.20
2023-03-25T22:21:26.681Z,3.42
2023-03-25T22:23:55.693Z,3.15
2023-03-25T22:26:24.032Z,3.13
2023-03-25T22:28:55.927Z,2.63
2023-03-25T22:31:30.938Z,2.67
2023-03-25T22:34:11.224Z,3.13
2023-03-25T22:36:46.346Z,2.85
2023-03-25T22:39:13.173Z,2.30
2023-03-25T22:41:39.915Z,2.28
2023-03-25T22:44:06.976Z,2.35
2023-03-25T22:46:34.254Z,2.85
2023-03-25T22:49:01.314Z,2.05
2023-03-25T22:51:28.462Z,2.28
2023-03-25T22:53:55.543Z,2.30
2023-03-25T22:56:23.788Z,3.35
2023-03-25T22:58:54.086Z,4.05
2023-03-25T23:01:26.876Z,4.78
2023-03-25T23:03:54.915Z,4.28
2023-03-25T23:06:22.665Z,5.93
2023-03-25T23:08:49.992Z,4.50
2023-03-25T23:11:20.472Z,4.68
2023-03-25T23:13:50.920Z,4.20
2023-03-25T23:16:20.445Z,5.00
2023-03-25T23:18:48.019Z,4.10
2023-03-25T23:21:17.181Z,2.83
2023-03-25T23:23:52.860Z,2.65
2023-03-25T23:26:27.232Z,3.30
2023-03-25T23:28:57.204Z,2.88
2023-03-25T23:31:28.395Z,2.70
2023-03-25T23:33:57.865Z,2.70
2023-03-25T23:36:26.316Z,2.13
2023-03-25T23:38:53.860Z,2.55
2023-03-25T23:41:23.056Z,2.88
2023-03-25T23:43:56.065Z,2.72
2023-03-25T23:46:24.991Z,2.45
2023-03-25T23:48:55.024Z,2.70
2023-03-25T23:51:24.424Z,2.33
2023-03-25T23:53:52.779Z,3.20
2023-03-25T23:56:22.898Z,2.08
2023-03-25T23:58:53.835Z,2.78
